Time;durP1;ratioP1;P1;durP2;ratioP2;P2;SDS_P1;SDS_P2;PMS_P1;PMS_P2;Temp;Humidity;BMP_temperature;BMP_pressure;BME280_temperature;BME280_humidity;BME280_pressure;Samples;Min_cycle;Max_cycle;Signal;HPM_P1;HPM_P2
2023/12/29 00:01:52;;;;;;;19.55;12.30;;;;;;;;;;6296641;28;20044;-75
2023/12/29 00:04:54;;;;;;;23.02;12.30;;;;;;;;;;6304493;28;20056;-75
2023/12/29 00:07:56;;;;;;;26.10;14.45;;;;;;;;;;6296063;28;20048;-76
2023/12/29 00:10:59;;;;;;;21.92;11.02;;;;;;;;;;6294443;28;20098;-77
2023/12/29 00:14:01;;;;;;;19.25;11.50;;;;;;;;;;6302359;28;20149;-75
2023/12/29 00:17:04;;;;;;;18.33;12.00;;;;;;;;;;6328496;28;20040;-76
2023/12/29 00:20:09;;;;;;;21.10;13.02;;;;;;;;;;6303669;28;20126;-76
2023/12/29 00:23:13;;;;;;;21.90;11.43;;;;;;;;;;6313390;28;20052;-76
2023/12/29 00:26:18;;;;;;;18.70;9.15;;;;;;;;;;6275100;28;20168;-76
2023/12/29 00:29:32;;;;;;;15.50;8.82;;;;;;;;;;6277125;28;20158;-76
2023/12/29 00:32:35;;;;;;;17.42;9.20;;;;;;;;;;6291494;28;20055;-76
2023/12/29 00:35:40;;;;;;;16.25;10.25;;;;;;;;;;6299207;28;20064;-76
2023/12/29 00:38:42;;;;;;;16.15;9.98;;;;;;;;;;6279948;28;20059;-76
2023/12/29 00:41:44;;;;;;;15.40;10.07;;;;;;;;;;6287814;28;20051;-76
2023/12/29 00:44:47;;;;;;;18.08;9.93;;;;;;;;;;6323437;28;20036;-77
2023/12/29 00:47:50;;;;;;;17.02;9.35;;;;;;;;;;6300711;28;20043;-76
2023/12/29 00:50:53;;;;;;;15.88;8.77;;;;;;;;;;6295911;28;20119;-75
2023/12/29 00:53:55;;;;;;;15.35;8.35;;;;;;;;;;6290285;28;20043;-75
2023/12/29 00:56:57;;;;;;;18.17;11.07;;;;;;;;;;6297044;28;20055;-76
2023/12/29 01:00:00;;;;;;;11.75;9.02;;;;;;;;;;6300180;28;20081;-76
2023/12/29 01:03:03;;;;;;;17.10;9.57;;;;;;;;;;6316482;28;20040;-76
2023/12/29 01:06:05;;;;;;;16.50;13.45;;;;;;;;;;6308372;28;20052;-77
2023/12/29 01:09:11;;;;;;;18.50;9.02;;;;;;;;;;6286123;28;20042;-76
2023/12/29 01:12:15;;;;;;;15.85;10.25;;;;;;;;;;6288359;28;20409;-75
2023/12/29 01:15:17;;;;;;;21.13;10.95;;;;;;;;;;6321465;28;20040;-76
2023/12/29 01:18:20;;;;;;;18.20;10.40;;;;;;;;;;6315483;28;20081;-76
2023/12/29 01:21:23;;;;;;;19.90;11.43;;;;;;;;;;6297671;28;20066;-76
2023/12/29 01:24:25;;;;;;;27.98;13.10;;;;;;;;;;6311510;28;20044;-76
2023/12/29 01:27:36;;;;;;;24.65;13.32;;;;;;;;;;6303819;28;20044;-77
2023/12/29 01:30:38;;;;;;;22.92;11.23;;;;;;;;;;6323549;28;20079;-76
2023/12/29 01:33:41;;;;;;;19.80;11.88;;;;;;;;;;6282319;28;20153;-76
2023/12/29 01:36:43;;;;;;;16.75;10.20;;;;;;;;;;6286434;28;20052;-74
2023/12/29 01:39:46;;;;;;;16.67;11.23;;;;;;;;;;6304697;28;20043;-76
2023/12/29 01:42:48;;;;;;;22.85;12.27;;;;;;;;;;6316828;28;20160;-74
2023/12/29 01:45:50;;;;;;;20.50;12.98;;;;;;;;;;6310846;28;20127;-75
2023/12/29 01:48:59;;;;;;;29.75;15.88;;;;;;;;;;6283469;28;20051;-75
2023/12/29 01:52:03;;;;;;;25.80;13.70;;;;;;;;;;6291202;28;20033;-75
2023/12/29 01:55:06;;;;;;;19.75;12.85;;;;;;;;;;6297025;28;20194;-75
2023/12/29 01:58:09;;;;;;;19.65;13.15;;;;;;;;;;6304335;28;20051;-75
2023/12/29 02:01:11;;;;;;;25.33;13.52;;;;;;;;;;6285777;28;20051;-75
2023/12/29 02:04:14;;;;;;;19.02;13.43;;;;;;;;;;6263652;28;20036;-75
2023/12/29 02:07:16;;;;;;;22.00;13.80;;;;;;;;;;6319680;28;20039;-75
2023/12/29 02:10:20;;;;;;;26.10;14.68;;;;;;;;;;6287560;28;20047;-75
2023/12/29 02:13:22;;;;;;;26.42;14.77;;;;;;;;;;6299509;28;20040;-75
2023/12/29 02:16:27;;;;;;;20.65;12.15;;;;;;;;;;6300484;28;20134;-75
2023/12/29 02:19:44;;;;;;;21.92;12.90;;;;;;;;;;6283323;28;20074;-76
2023/12/29 02:22:47;;;;;;;20.00;12.70;;;;;;;;;;6288787;28;20809;-75
2023/12/29 02:25:52;;;;;;;21.48;12.27;;;;;;;;;;6319058;28;20168;-76
2023/12/29 02:29:00;;;;;;;19.85;11.98;;;;;;;;;;6296863;28;20521;-76
2023/12/29 02:32:05;;;;;;;17.42;11.85;;;;;;;;;;6291945;28;20036;-76
2023/12/29 02:35:10;;;;;;;16.52;12.63;;;;;;;;;;6298333;28;20577;-76
2023/12/29 02:38:13;;;;;;;19.63;12.15;;;;;;;;;;6278828;28;20513;-76
2023/12/29 02:41:15;;;;;;;21.00;11.57;;;;;;;;;;6284951;28;20714;-76
2023/12/29 02:44:18;;;;;;;15.55;9.48;;;;;;;;;;6307661;28;20063;-76
2023/12/29 02:47:21;;;;;;;15.25;9.75;;;;;;;;;;6313244;28;20149;-76
2023/12/29 02:50:23;;;;;;;21.40;11.80;;;;;;;;;;6288009;28;20142;-76
2023/12/29 02:53:26;;;;;;;19.25;10.73;;;;;;;;;;6292621;28;20120;-76
2023/12/29 02:56:28;;;;;;;23.65;11.95;;;;;;;;;;6282206;28;20091;-77
2023/12/29 02:59:31;;;;;;;15.63;10.10;;;;;;;;;;6297926;28;20141;-76
2023/12/29 03:02:34;;;;;;;23.42;12.35;;;;;;;;;;6302167;28;20048;-77
2023/12/29 03:05:38;;;;;;;21.00;13.52;;;;;;;;;;6284613;28;20113;-76
2023/12/29 03:08:41;;;;;;;21.42;12.50;;;;;;;;;;6300944;28;20054;-76
2023/12/29 03:11:43;;;;;;;23.55;13.90;;;;;;;;;;6315487;28;20070;-76
2023/12/29 03:14:47;;;;;;;20.40;11.43;;;;;;;;;;6280330;28;20044;-76
2023/12/29 03:17:51;;;;;;;21.85;12.05;;;;;;;;;;6305088;28;20834;-76
2023/12/29 03:20:53;;;;;;;22.17;13.38;;;;;;;;;;6300906;28;20515;-77
2023/12/29 03:23:56;;;;;;;18.08;12.52;;;;;;;;;;6314677;28;20043;-77
2023/12/29 03:26:58;;;;;;;29.85;14.55;;;;;;;;;;6293493;28;20587;-76
2023/12/29 03:30:00;;;;;;;17.17;11.82;;;;;;;;;;6314395;28;20047;-76
2023/12/29 03:33:02;;;;;;;24.30;14.05;;;;;;;;;;6285345;28;20681;-76
2023/12/29 03:36:09;;;;;;;25.65;14.10;;;;;;;;;;6297021;28;20032;-76
2023/12/29 03:39:12;;;;;;;23.77;15.48;;;;;;;;;;6283385;28;20070;-76
2023/12/29 03:42:14;;;;;;;33.95;17.50;;;;;;;;;;6300460;28;20055;-76
2023/12/29 03:45:16;;;;;;;27.40;15.95;;;;;;;;;;6318829;28;20036;-76
2023/12/29 03:48:18;;;;;;;22.98;13.25;;;;;;;;;;6315772;28;20044;-76
2023/12/29 03:51:21;;;;;;;30.48;15.10;;;;;;;;;;6301909;28;20040;-76
2023/12/29 03:54:23;;;;;;;24.67;15.50;;;;;;;;;;6257486;28;20040;-76
2023/12/29 03:57:26;;;;;;;19.88;13.10;;;;;;;;;;6263279;28;20095;-76
2023/12/29 04:00:30;;;;;;;24.58;14.90;;;;;;;;;;6307307;28;20506;-76
2023/12/29 04:03:33;;;;;;;22.15;14.00;;;;;;;;;;6303745;28;20062;-76
2023/12/29 04:06:35;;;;;;;20.73;12.75;;;;;;;;;;6281394;28;20047;-76
2023/12/29 04:09:37;;;;;;;23.23;15.65;;;;;;;;;;6293475;28;20055;-76
2023/12/29 04:12:39;;;;;;;19.55;15.02;;;;;;;;;;6301440;28;20050;-76
2023/12/29 04:15:42;;;;;;;25.65;14.57;;;;;;;;;;6322161;28;20593;-76
2023/12/29 04:18:44;;;;;;;29.67;17.92;;;;;;;;;;6303479;28;20094;-75
2023/12/29 04:21:47;;;;;;;29.50;17.02;;;;;;;;;;6324214;28;20822;-76
2023/12/29 04:24:49;;;;;;;26.58;16.15;;;;;;;;;;6304786;28;20189;-75
2023/12/29 04:27:51;;;;;;;29.55;14.00;;;;;;;;;;6320585;28;20051;-75
2023/12/29 04:30:53;;;;;;;29.77;15.55;;;;;;;;;;6321869;28;20052;-76
2023/12/29 04:33:56;;;;;;;31.95;17.67;;;;;;;;;;6319416;28;20825;-75
2023/12/29 04:36:58;;;;;;;29.33;17.63;;;;;;;;;;6296189;28;20067;-75
2023/12/29 04:40:01;;;;;;;31.10;19.88;;;;;;;;;;6301129;28;20629;-75
2023/12/29 04:43:03;;;;;;;42.28;22.48;;;;;;;;;;6322831;28;20446;-76
2023/12/29 04:46:05;;;;;;;30.42;17.75;;;;;;;;;;6299015;28;20049;-75
2023/12/29 04:49:08;;;;;;;34.88;17.08;;;;;;;;;;6324158;28;20043;-75
2023/12/29 04:52:10;;;;;;;34.47;17.60;;;;;;;;;;6314547;28;20048;-75
2023/12/29 04:55:13;;;;;;;29.17;16.25;;;;;;;;;;6320492;28;20032;-75
2023/12/29 04:58:15;;;;;;;23.40;15.02;;;;;;;;;;6302712;28;20079;-75
2023/12/29 05:01:17;;;;;;;40.05;16.65;;;;;;;;;;6306085;28;20958;-76
2023/12/29 05:04:19;;;;;;;32.42;15.85;;;;;;;;;;6288264;28;20059;-75
2023/12/29 05:07:23;;;;;;;32.05;17.25;;;;;;;;;;6317094;28;20048;-75
2023/12/29 05:10:25;;;;;;;32.50;16.02;;;;;;;;;;6280923;28;20190;-75
2023/12/29 05:13:28;;;;;;;25.63;15.43;;;;;;;;;;6282327;28;20597;-75
2023/12/29 05:16:29;;;;;;;28.45;16.75;;;;;;;;;;6309617;28;20051;-74
2023/12/29 05:19:32;;;;;;;27.48;15.15;;;;;;;;;;6304254;28;20550;-75
2023/12/29 05:22:34;;;;;;;26.05;15.77;;;;;;;;;;6316270;28;20048;-75
2023/12/29 05:25:36;;;;;;;28.30;14.82;;;;;;;;;;6291866;28;20181;-76
2023/12/29 05:28:38;;;;;;;22.63;12.73;;;;;;;;;;6282996;28;20048;-75
2023/12/29 05:31:42;;;;;;;21.80;13.52;;;;;;;;;;6299353;28;20048;-75
2023/12/29 05:34:44;;;;;;;25.38;11.57;;;;;;;;;;6319148;28;20135;-76
2023/12/29 05:37:49;;;;;;;35.65;19.38;;;;;;;;;;6304883;28;20055;-76
2023/12/29 05:40:52;;;;;;;29.13;15.18;;;;;;;;;;6303313;28;20200;-76
2023/12/29 05:43:54;;;;;;;24.17;12.27;;;;;;;;;;6317597;28;20051;-76
2023/12/29 05:46:56;;;;;;;25.85;11.65;;;;;;;;;;6304914;28;20059;-75
2023/12/29 05:49:59;;;;;;;25.27;11.70;;;;;;;;;;6322661;28;20047;-77
2023/12/29 05:53:01;;;;;;;18.27;9.98;;;;;;;;;;6303041;28;20515;-76
2023/12/29 05:56:04;;;;;;;15.52;10.23;;;;;;;;;;6290335;28;20586;-76
2023/12/29 05:59:06;;;;;;;19.25;11.18;;;;;;;;;;6317744;28;20055;-76
2023/12/29 06:02:08;;;;;;;19.63;11.88;;;;;;;;;;6307943;28;20541;-76
2023/12/29 06:05:10;;;;;;;47.58;27.27;;;;;;;;;;6315107;28;20039;-76
2023/12/29 06:08:12;;;;;;;39.28;20.13;;;;;;;;;;6281944;28;20059;-76
2023/12/29 06:11:18;;;;;;;32.45;15.65;;;;;;;;;;6319062;28;20055;-76
2023/12/29 06:14:20;;;;;;;26.55;14.30;;;;;;;;;;6318375;28;20048;-76
2023/12/29 06:17:22;;;;;;;26.92;12.63;;;;;;;;;;6300987;28;20099;-76
2023/12/29 06:20:25;;;;;;;34.20;15.32;;;;;;;;;;6312531;28;20051;-77
2023/12/29 06:23:27;;;;;;;27.80;15.10;;;;;;;;;;6306461;28;20454;-76
2023/12/29 06:26:29;;;;;;;21.02;13.15;;;;;;;;;;6310971;28;20048;-75
2023/12/29 06:29:32;;;;;;;25.63;15.50;;;;;;;;;;6301660;28;20149;-77
2023/12/29 06:32:34;;;;;;;31.85;18.27;;;;;;;;;;6296104;28;20463;-75
2023/12/29 06:35:38;;;;;;;37.75;21.50;;;;;;;;;;6309702;28;20593;-77
2023/12/29 06:38:41;;;;;;;41.60;23.60;;;;;;;;;;6294964;28;20531;-77
2023/12/29 06:41:43;;;;;;;38.90;18.65;;;;;;;;;;6286675;28;20044;-76
2023/12/29 06:44:46;;;;;;;26.17;16.42;;;;;;;;;;6301326;28;20535;-76
2023/12/29 06:47:48;;;;;;;26.50;13.82;;;;;;;;;;6280173;28;20055;-76
2023/12/29 06:50:51;;;;;;;19.17;11.93;;;;;;;;;;6301221;28;20043;-76
2023/12/29 06:53:53;;;;;;;31.88;19.17;;;;;;;;;;6302329;28;20062;-79
2023/12/29 06:56:55;;;;;;;38.08;17.23;;;;;;;;;;6292199;28;20028;-76
2023/12/29 06:59:57;;;;;;;31.95;17.98;;;;;;;;;;6826745;22;20024;-82
2023/12/29 07:03:02;;;;;;;30.38;16.10;;;;;;;;;;6266185;28;20132;-82
2023/12/29 07:06:06;;;;;;;34.60;18.30;;;;;;;;;;6263013;28;20044;-84
2023/12/29 07:09:09;;;;;;;34.90;18.25;;;;;;;;;;6251028;28;20485;-84
2023/12/29 07:12:12;;;;;;;32.15;17.45;;;;;;;;;;6248547;28;20036;-82
2023/12/29 07:15:23;;;;;;;46.22;25.67;;;;;;;;;;6262145;28;20059;-84
2023/12/29 07:18:35;;;;;;;78.97;40.20;;;;;;;;;;6269809;28;20211;-84
2023/12/29 07:22:11;;;;;;;38.22;22.20;;;;;;;;;;6281041;28;20769;-84
2023/12/29 07:25:14;;;;;;;47.22;20.70;;;;;;;;;;6307943;28;20024;-87
2023/12/29 07:28:17;;;;;;;42.22;20.85;;;;;;;;;;6296131;28;20044;-84
2023/12/29 07:31:19;;;;;;;72.32;29.95;;;;;;;;;;6305774;28;20040;-84
2023/12/29 07:34:22;;;;;;;54.42;25.10;;;;;;;;;;6271311;28;20131;-84
2023/12/29 07:37:24;;;;;;;67.18;29.70;;;;;;;;;;6291645;28;20047;-84
2023/12/29 07:40:27;;;;;;;55.63;22.85;;;;;;;;;;6276535;28;20049;-84
2023/12/29 07:43:33;;;;;;;52.90;23.58;;;;;;;;;;6277100;28;20442;-85
2023/12/29 07:46:35;;;;;;;41.15;19.65;;;;;;;;;;6235480;28;20063;-84
2023/12/29 07:49:38;;;;;;;37.03;18.35;;;;;;;;;;6286013;28;20040;-83
2023/12/29 07:53:21;;;;;;;33.40;18.63;;;;;;;;;;6245543;28;20053;-84
2023/12/29 07:56:23;;;;;;;41.92;22.65;;;;;;;;;;6276230;28;20093;-82
2023/12/29 07:59:33;;;;;;;42.20;21.55;;;;;;;;;;6238364;28;20060;-83
2023/12/29 08:02:35;;;;;;;44.72;23.50;;;;;;;;;;6281877;28;20057;-83
2023/12/29 08:05:38;;;;;;;41.38;24.60;;;;;;;;;;6275343;28;20791;-84
2023/12/29 08:08:41;;;;;;;50.40;26.48;;;;;;;;;;6306673;28;20048;-83
2023/12/29 08:12:16;;;;;;;58.20;27.40;;;;;;;;;;6338876;27;20011;-84
2023/12/29 08:16:04;;;;;;;42.10;21.25;;;;;;;;;;6260097;28;20049;-72
2023/12/29 08:19:07;;;;;;;41.05;22.88;;;;;;;;;;6282556;28;20100;-72
2023/12/29 08:22:09;;;;;;;44.03;25.33;;;;;;;;;;6259766;28;20052;-72
2023/12/29 08:25:12;;;;;;;40.80;24.00;;;;;;;;;;6270750;28;20048;-73
2023/12/29 08:28:14;;;;;;;32.10;17.67;;;;;;;;;;6280351;28;20772;-72
2023/12/29 08:31:19;;;;;;;35.50;19.95;;;;;;;;;;6284436;28;20794;-73
2023/12/29 08:34:21;;;;;;;33.20;18.95;;;;;;;;;;6262037;28;20048;-72
2023/12/29 08:37:25;;;;;;;38.67;23.70;;;;;;;;;;6255882;28;20087;-72
2023/12/29 08:40:27;;;;;;;39.42;22.30;;;;;;;;;;6262054;28;20045;-74
2023/12/29 08:43:30;;;;;;;43.95;23.38;;;;;;;;;;6283924;28;20411;-72
2023/12/29 08:46:32;;;;;;;40.20;21.70;;;;;;;;;;6281751;28;20041;-73
2023/12/29 08:49:38;;;;;;;104.97;55.80;;;;;;;;;;6277249;28;20053;-73
2023/12/29 08:52:40;;;;;;;22.63;14.85;;;;;;;;;;6269212;28;20049;-73
2023/12/29 08:55:43;;;;;;;39.15;22.88;;;;;;;;;;6284527;28;20803;-72
2023/12/29 08:58:45;;;;;;;22.42;15.48;;;;;;;;;;6265553;28;20056;-72
2023/12/29 09:01:47;;;;;;;56.10;33.88;;;;;;;;;;6274685;28;20594;-72
2023/12/29 09:04:49;;;;;;;105.05;49.20;;;;;;;;;;6269756;28;20063;-74
2023/12/29 09:07:51;;;;;;;107.63;60.30;;;;;;;;;;6251079;28;20040;-74
2023/12/29 09:10:53;;;;;;;57.92;30.77;;;;;;;;;;6280841;28;20571;-74
2023/12/29 09:13:56;;;;;;;41.92;21.67;;;;;;;;;;6269033;28;20044;-74
2023/12/29 09:16:59;;;;;;;35.08;21.00;;;;;;;;;;6296938;28;20613;-74
2023/12/29 09:20:02;;;;;;;33.60;20.50;;;;;;;;;;6274163;28;20044;-74
2023/12/29 09:23:11;;;;;;;84.18;41.45;;;;;;;;;;6257875;28;20171;-74
2023/12/29 09:26:13;;;;;;;51.58;28.15;;;;;;;;;;6258252;28;20594;-74
2023/12/29 09:29:15;;;;;;;48.05;25.48;;;;;;;;;;6276808;28;20522;-74
2023/12/29 09:32:17;;;;;;;56.30;32.83;;;;;;;;;;6284775;28;20441;-74
2023/12/29 09:35:20;;;;;;;46.97;25.75;;;;;;;;;;6266023;28;20573;-73
2023/12/29 09:38:22;;;;;;;44.25;24.80;;;;;;;;;;6280626;28;20144;-73
2023/12/29 09:41:26;;;;;;;37.90;21.63;;;;;;;;;;6277935;28;20121;-73
2023/12/29 09:44:28;;;;;;;34.33;22.48;;;;;;;;;;6260815;28;20434;-73
2023/12/29 09:47:31;;;;;;;35.38;19.90;;;;;;;;;;6264323;28;20551;-73
2023/12/29 09:50:35;;;;;;;35.67;21.13;;;;;;;;;;6259619;28;20159;-72
2023/12/29 09:53:38;;;;;;;32.92;18.83;;;;;;;;;;6267258;28;20452;-74
2023/12/29 09:56:40;;;;;;;33.97;22.25;;;;;;;;;;6262802;28;20462;-74
2023/12/29 09:59:43;;;;;;;62.72;27.30;;;;;;;;;;6287025;28;20052;-74
2023/12/29 10:02:45;;;;;;;37.30;22.27;;;;;;;;;;6295943;28;20117;-73
2023/12/29 10:05:51;;;;;;;32.58;20.88;;;;;;;;;;6289159;28;20570;-74
2023/12/29 10:08:53;;;;;;;39.85;21.52;;;;;;;;;;6252706;28;20056;-74
2023/12/29 10:11:56;;;;;;;31.63;19.58;;;;;;;;;;6259518;28;20049;-74
2023/12/29 10:15:20;;;;;;;38.63;22.05;;;;;;;;;;6288074;28;20052;-75
2023/12/29 10:18:46;;;;;;;34.47;20.35;;;;;;;;;;6260932;28;20056;-75
2023/12/29 10:22:05;;;;;;;36.72;22.58;;;;;;;;;;6273200;28;20044;-75
2023/12/29 10:25:08;;;;;;;37.17;22.83;;;;;;;;;;6271251;28;20045;-75
2023/12/29 10:28:10;;;;;;;34.38;21.50;;;;;;;;;;6288698;28;20139;-74
2023/12/29 10:31:15;;;;;;;43.78;23.88;;;;;;;;;;6255847;28;20037;-74
2023/12/29 10:34:31;;;;;;;33.33;20.95;;;;;;;;;;6252133;28;20139;-75
2023/12/29 10:37:35;;;;;;;34.03;20.63;;;;;;;;;;6263810;28;20186;-75
2023/12/29 10:40:38;;;;;;;36.30;21.75;;;;;;;;;;6273956;28;20692;-75
2023/12/29 10:43:52;;;;;;;33.72;23.17;;;;;;;;;;6273220;28;20063;-74
2023/12/29 10:46:55;;;;;;;33.75;20.42;;;;;;;;;;6290420;28;20040;-74
2023/12/29 10:49:59;;;;;;;34.00;20.80;;;;;;;;;;6274955;28;20581;-74
2023/12/29 10:53:18;;;;;;;28.95;18.50;;;;;;;;;;6309518;28;20063;-74
2023/12/29 10:56:20;;;;;;;31.83;19.23;;;;;;;;;;6295383;28;20045;-74
2023/12/29 10:59:23;;;;;;;29.40;18.83;;;;;;;;;;6266205;28;20824;-74
2023/12/29 11:02:28;;;;;;;31.35;18.98;;;;;;;;;;6281684;28;20045;-74
2023/12/29 11:05:30;;;;;;;29.67;19.35;;;;;;;;;;6271966;28;20056;-74
2023/12/29 11:08:35;;;;;;;27.38;17.92;;;;;;;;;;6266566;28;20071;-74
2023/12/29 11:11:38;;;;;;;;;;;;;;;;;;6267475;28;20045;-74
2023/12/29 11:14:42;;;;;;;35.83;20.13;;;;;;;;;;6293240;28;19925;-74
2023/12/29 11:17:49;;;;;;;30.80;18.95;;;;;;;;;;6259393;28;20036;-74
2023/12/29 11:20:52;;;;;;;32.63;19.42;;;;;;;;;;6297942;28;20158;-74
2023/12/29 11:23:55;;;;;;;29.23;18.13;;;;;;;;;;6260251;28;20040;-73
2023/12/29 11:26:57;;;;;;;33.95;18.67;;;;;;;;;;6271916;28;20036;-74
2023/12/29 11:30:00;;;;;;;29.75;16.17;;;;;;;;;;6304484;28;20043;-74
2023/12/29 11:33:40;;;;;;;;;;;;;;;;;;6292628;28;20578;-74
2023/12/29 11:36:45;;;;;;;23.95;14.30;;;;;;;;;;6185519;28;20754;-74
2023/12/29 11:39:57;;;;;;;24.15;15.52;;;;;;;;;;6290189;28;20048;-74
2023/12/29 11:43:03;;;;;;;24.80;15.68;;;;;;;;;;6281180;28;20044;-74
2023/12/29 11:46:05;;;;;;;23.95;15.18;;;;;;;;;;6294650;28;20049;-73
2023/12/29 11:49:07;;;;;;;23.13;14.30;;;;;;;;;;6267403;28;20073;-73
2023/12/29 11:52:10;;;;;;;21.00;14.13;;;;;;;;;;6262801;28;20081;-73
2023/12/29 11:55:14;;;;;;;17.75;11.07;;;;;;;;;;6278675;28;20122;-74
2023/12/29 11:58:30;;;;;;;19.27;13.07;;;;;;;;;;6267304;28;20052;-74
2023/12/29 12:01:34;;;;;;;20.50;13.13;;;;;;;;;;6282311;28;20048;-73
2023/12/29 12:04:40;;;;;;;18.20;12.07;;;;;;;;;;6276197;28;20044;-74
2023/12/29 12:07:48;;;;;;;19.55;12.80;;;;;;;;;;6254347;28;20041;-73
2023/12/29 12:10:50;;;;;;;20.38;10.75;;;;;;;;;;6264960;28;20032;-73
2023/12/29 12:13:52;;;;;;;20.42;10.90;;;;;;;;;;6281394;28;20052;-74
2023/12/29 12:16:55;;;;;;;19.60;12.75;;;;;;;;;;6279428;28;20044;-73
2023/12/29 12:20:04;;;;;;;18.63;11.52;;;;;;;;;;6286780;28;20776;-73
2023/12/29 12:23:12;;;;;;;20.92;12.90;;;;;;;;;;6265830;28;20199;-73
2023/12/29 12:26:14;;;;;;;33.28;17.33;;;;;;;;;;6269259;28;20048;-73
2023/12/29 12:29:17;;;;;;;15.93;10.25;;;;;;;;;;6263573;28;20056;-73
2023/12/29 12:32:19;;;;;;;18.45;10.98;;;;;;;;;;6264225;28;20132;-74
2023/12/29 12:35:22;;;;;;;18.35;10.65;;;;;;;;;;6272379;28;20367;-74
2023/12/29 12:38:24;;;;;;;16.85;10.43;;;;;;;;;;6297691;28;20964;-73
2023/12/29 12:41:30;;;;;;;14.48;9.85;;;;;;;;;;6274233;28;20060;-73
2023/12/29 12:44:32;;;;;;;14.45;9.57;;;;;;;;;;6254775;28;20053;-73
2023/12/29 12:47:51;;;;;;;17.02;9.57;;;;;;;;;;6254741;28;20911;-73
2023/12/29 12:50:56;;;;;;;22.85;13.35;;;;;;;;;;6265284;28;20122;-73
2023/12/29 12:53:59;;;;;;;17.40;11.05;;;;;;;;;;6264342;28;20072;-72
2023/12/29 12:57:01;;;;;;;24.35;13.85;;;;;;;;;;6274535;28;20147;-72
2023/12/29 13:00:05;;;;;;;22.02;12.10;;;;;;;;;;6259849;28;20438;-72
2023/12/29 13:03:08;;;;;;;19.00;11.77;;;;;;;;;;6278990;28;20198;-73
2023/12/29 13:06:11;;;;;;;19.77;12.48;;;;;;;;;;6243527;28;20093;-73
2023/12/29 13:09:14;;;;;;;18.45;11.75;;;;;;;;;;6256063;28;20056;-73
2023/12/29 13:12:17;;;;;;;22.20;13.60;;;;;;;;;;6261309;28;20095;-73
2023/12/29 13:15:19;;;;;;;19.77;13.02;;;;;;;;;;6264640;28;20053;-73
2023/12/29 13:18:33;;;;;;;19.23;13.50;;;;;;;;;;6280023;28;20431;-73
2023/12/29 13:21:36;;;;;;;20.05;13.32;;;;;;;;;;6278914;28;20056;-73
2023/12/29 13:24:45;;;;;;;27.05;14.73;;;;;;;;;;6258746;28;20057;-74
2023/12/29 13:27:48;;;;;;;24.20;14.48;;;;;;;;;;6263618;28;20068;-73
2023/12/29 13:30:50;;;;;;;28.63;16.83;;;;;;;;;;6280147;28;20064;-72
2023/12/29 13:34:04;;;;;;;27.20;15.10;;;;;;;;;;6281907;28;20036;-72
2023/12/29 13:37:26;;;;;;;22.30;14.57;;;;;;;;;;6262866;28;20040;-72
2023/12/29 13:40:39;;;;;;;26.85;14.48;;;;;;;;;;6251882;28;20059;-73
2023/12/29 13:43:45;;;;;;;20.77;14.52;;;;;;;;;;6253904;28;20420;-73
2023/12/29 13:46:48;;;;;;;20.73;14.45;;;;;;;;;;6274641;28;20045;-73
2023/12/29 13:49:51;;;;;;;35.42;22.10;;;;;;;;;;6263349;28;20142;-73
2023/12/29 13:52:54;;;;;;;22.17;15.05;;;;;;;;;;6275734;28;20049;-73
2023/12/29 13:56:09;;;;;;;28.35;17.63;;;;;;;;;;6264816;28;20072;-73
2023/12/29 13:59:11;;;;;;;28.60;19.35;;;;;;;;;;6267151;28;20179;-73
2023/12/29 14:02:26;;;;;;;35.95;20.88;;;;;;;;;;6242890;28;20565;-74
2023/12/29 14:05:35;;;;;;;31.90;21.20;;;;;;;;;;6281633;28;20045;-74
2023/12/29 14:08:47;;;;;;;34.30;25.52;;;;;;;;;;6268273;28;20418;-74
2023/12/29 14:11:50;;;;;;;31.48;21.65;;;;;;;;;;6264820;28;20081;-74
2023/12/29 14:14:53;;;;;;;27.63;16.20;;;;;;;;;;6266683;28;20710;-74
2023/12/29 14:17:57;;;;;;;30.45;18.05;;;;;;;;;;6250557;28;20043;-73
2023/12/29 14:20:59;;;;;;;36.67;22.42;;;;;;;;;;6282406;28;20040;-73
2023/12/29 14:24:11;;;;;;;30.42;19.33;;;;;;;;;;6290597;28;20130;-74
2023/12/29 14:27:14;;;;;;;34.60;22.83;;;;;;;;;;6263893;28;20041;-73
2023/12/29 14:30:18;;;;;;;28.67;17.95;;;;;;;;;;6255694;28;20044;-73
2023/12/29 14:33:21;;;;;;;25.52;15.60;;;;;;;;;;6321222;28;20062;-73
2023/12/29 14:36:23;;;;;;;30.35;16.60;;;;;;;;;;6273977;28;20057;-73
2023/12/29 14:39:25;;;;;;;30.42;14.73;;;;;;;;;;6278805;28;20051;-73
2023/12/29 14:42:27;;;;;;;31.27;16.92;;;;;;;;;;6276129;28;20076;-72
2023/12/29 14:45:29;;;;;;;32.40;22.30;;;;;;;;;;6282033;28;20134;-73
2023/12/29 14:48:31;;;;;;;32.72;19.40;;;;;;;;;;6270078;28;20402;-72
2023/12/29 14:51:33;;;;;;;35.42;17.95;;;;;;;;;;6284766;28;20085;-73
2023/12/29 14:54:37;;;;;;;34.70;18.80;;;;;;;;;;6261550;28;20049;-73
2023/12/29 14:57:40;;;;;;;40.90;19.60;;;;;;;;;;6264718;28;20041;-73
2023/12/29 15:00:46;;;;;;;120.53;42.53;;;;;;;;;;6279733;28;20111;-73
2023/12/29 15:03:48;;;;;;;44.95;20.92;;;;;;;;;;6264298;28;20048;-73
2023/12/29 15:06:52;;;;;;;31.00;17.50;;;;;;;;;;6265033;28;20051;-73
2023/12/29 15:09:54;;;;;;;29.08;16.73;;;;;;;;;;6265164;28;20071;-73
2023/12/29 15:12:56;;;;;;;29.75;18.17;;;;;;;;;;6278013;28;20469;-73
2023/12/29 15:15:59;;;;;;;29.13;16.25;;;;;;;;;;6246715;28;20045;-73
2023/12/29 15:19:03;;;;;;;27.30;16.13;;;;;;;;;;6278257;28;20072;-74
2023/12/29 15:22:06;;;;;;;54.42;23.30;;;;;;;;;;6284513;28;20149;-73
2023/12/29 15:25:08;;;;;;;53.53;23.42;;;;;;;;;;6282099;28;20044;-73
2023/12/29 15:28:10;;;;;;;46.00;22.55;;;;;;;;;;6266104;28;20117;-74
2023/12/29 15:31:14;;;;;;;33.47;19.42;;;;;;;;;;6278532;28;20604;-74
2023/12/29 15:34:16;;;;;;;33.28;16.30;;;;;;;;;;6257669;28;20557;-73
2023/12/29 15:37:21;;;;;;;26.60;16.77;;;;;;;;;;6272941;28;20085;-73
2023/12/29 15:40:23;;;;;;;21.83;14.18;;;;;;;;;;6272813;28;20059;-73
2023/12/29 15:43:29;;;;;;;30.52;16.23;;;;;;;;;;6289897;28;20053;-73
2023/12/29 15:46:31;;;;;;;35.10;15.93;;;;;;;;;;6280566;28;20067;-73
2023/12/29 15:49:33;;;;;;;26.63;15.63;;;;;;;;;;6277556;28;20602;-73
2023/12/29 15:52:35;;;;;;;28.30;15.15;;;;;;;;;;6275216;28;20046;-73
2023/12/29 15:55:38;;;;;;;34.60;17.48;;;;;;;;;;6244679;28;20431;-74
2023/12/29 15:58:40;;;;;;;32.45;16.63;;;;;;;;;;6261600;28;20072;-73
2023/12/29 16:01:42;;;;;;;42.50;19.23;;;;;;;;;;6246464;28;20045;-73
2023/12/29 16:04:45;;;;;;;39.05;21.02;;;;;;;;;;6275431;28;20047;-73
2023/12/29 16:07:47;;;;;;;36.58;19.48;;;;;;;;;;6263099;28;20132;-73
2023/12/29 16:10:50;;;;;;;41.95;25.65;;;;;;;;;;6263236;28;20044;-73
2023/12/29 16:13:53;;;;;;;32.92;18.38;;;;;;;;;;6276480;28;20062;-73
2023/12/29 16:16:54;;;;;;;26.95;16.77;;;;;;;;;;6279228;28;20047;-74
2023/12/29 16:19:57;;;;;;;32.15;19.55;;;;;;;;;;6278760;28;20072;-74
2023/12/29 16:22:59;;;;;;;33.63;19.15;;;;;;;;;;6264157;28;20093;-73
2023/12/29 16:26:08;;;;;;;44.60;26.10;;;;;;;;;;6273732;28;20045;-74
2023/12/29 16:29:10;;;;;;;41.90;27.40;;;;;;;;;;6245165;28;20072;-73
2023/12/29 16:32:19;;;;;;;42.67;23.13;;;;;;;;;;6277873;28;20143;-73
2023/12/29 16:35:22;;;;;;;28.33;19.15;;;;;;;;;;6246889;28;20056;-73
2023/12/29 16:38:25;;;;;;;64.68;34.63;;;;;;;;;;6280615;28;20765;-74
2023/12/29 16:41:26;;;;;;;40.47;24.08;;;;;;;;;;6268279;28;20044;-74
2023/12/29 16:44:28;;;;;;;33.03;21.63;;;;;;;;;;6280015;28;20404;-74
2023/12/29 16:47:32;;;;;;;36.22;21.40;;;;;;;;;;6262394;28;20452;-73
2023/12/29 16:50:34;;;;;;;95.00;50.38;;;;;;;;;;6267669;28;20595;-73
2023/12/29 16:53:36;;;;;;;52.63;31.83;;;;;;;;;;6262348;28;20040;-72
2023/12/29 16:56:39;;;;;;;37.85;23.48;;;;;;;;;;6250351;28;20036;-72
2023/12/29 16:59:41;;;;;;;27.42;17.08;;;;;;;;;;6264276;28;20162;-72
2023/12/29 17:02:43;;;;;;;38.55;17.17;;;;;;;;;;6276897;28;20040;-73
2023/12/29 17:05:47;;;;;;;31.63;16.95;;;;;;;;;;6266709;28;20039;-72
2023/12/29 17:08:49;;;;;;;27.08;15.38;;;;;;;;;;6248462;28;20143;-72
2023/12/29 17:11:51;;;;;;;32.58;19.08;;;;;;;;;;6283892;28;20048;-73
2023/12/29 17:14:53;;;;;;;33.33;18.17;;;;;;;;;;6258325;28;20128;-72
2023/12/29 17:17:55;;;;;;;33.65;19.98;;;;;;;;;;6284758;28;20147;-71
2023/12/29 17:20:57;;;;;;;41.47;21.17;;;;;;;;;;6268432;28;20080;-74
2023/12/29 17:23:59;;;;;;;32.63;20.08;;;;;;;;;;6294254;28;20071;-74
2023/12/29 17:27:02;;;;;;;24.77;16.15;;;;;;;;;;6272623;28;20053;-74
2023/12/29 17:30:05;;;;;;;30.15;17.17;;;;;;;;;;6275357;28;20101;-73
2023/12/29 17:33:07;;;;;;;32.83;18.20;;;;;;;;;;6275738;28;20127;-72
2023/12/29 17:36:10;;;;;;;31.35;16.52;;;;;;;;;;6264934;28;20079;-74
2023/12/29 17:39:12;;;;;;;68.20;29.85;;;;;;;;;;6292948;28;20089;-74
2023/12/29 17:42:14;;;;;;;28.42;15.93;;;;;;;;;;6276845;28;20774;-74
2023/12/29 17:45:16;;;;;;;39.08;20.95;;;;;;;;;;6249269;28;20052;-74
2023/12/29 17:48:19;;;;;;;27.77;18.27;;;;;;;;;;6260252;28;20045;-74
2023/12/29 17:51:28;;;;;;;25.60;15.18;;;;;;;;;;6279907;28;20055;-74
2023/12/29 17:54:30;;;;;;;26.90;16.55;;;;;;;;;;6267394;28;20617;-74